Thunderstorms From: 25-05-2018 15:00 Until: 26-05-2018 15:00 warning for: Thunderstorms Level: Yellow info button

Although rather usual in this region, locally or potentially dangerous phenomena are expected. (such as local winds, summer thunderstorms, rising streams or high waves) Be aware and pay attention to the latest weather updates, especially if you carry out activities exposed to weather or close to a stream or shoreline. 


Meteo18 Weather Cam more information Meteo18 Weather Cam


warning for Thunderstorms more information blitzortung!


Rain radar more information rain snow radar


Visit our other weather sites:

Template documentation
and downloads

And another site



Weather Underground History page Text

Daily Summary for June 27, 2016 Units:  Metric    English   Both
« Previous Day
Next Day »
Daily Weekly Monthly Yearly Custom
  High: Low: Average:
Temperature: -17.8 °C -12.4 °C -8.2 °C
Dew Point: -17.8 °C -12.7 °C -10.3 °C
Humidity: Humidity % 55 % 80 %
Wind Speed: 0 km/h 0 km/h 1.6 km/h
Wind Gust: 0 km/h - -
Wind:- - WSW
Pressure: 0 hPa 34554.1 hPa -
Precipitation: 0 mm    
Historical Graphs
 
 
Tabular Data for June 27, 2016
Time Temperature Dew Point Pressure Wind Wind Speed Wind Gust Humidity Rainfall Rate (Hourly)
-17.8 °C -17.8 °C 0 hPa Calm     Humidity % 0 mm
00:02 -11.2 °C -11.8 °C 34601.5 hPa Calm     93 % 0 mm
00:07 -11.3 °C -11.9 °C 34601.5 hPa Calm     93 % 0 mm
00:12 -11.3 °C -11.9 °C 34601.5 hPa Calm     93 % 0 mm
00:17 -11.4 °C -12.1 °C 34591.4 hPa Calm     93 % 0 mm
00:22 -11.4 °C -11.9 °C 34601.5 hPa Calm     94 % 0 mm
00:27 -11.4 °C -11.9 °C 34601.5 hPa Calm     94 % 0 mm
00:32 -11.3 °C -11.8 °C 34601.5 hPa Calm     94 % 0 mm
00:42 -11.4 °C -11.9 °C 34591.4 hPa Calm     94 % 0 mm
00:47 -11.4 °C -11.9 °C 34591.4 hPa Calm     94 % 0 mm
00:52 -11.5 °C -12 °C 34591.4 hPa Calm     94 % 0 mm
00:57 -11.6 °C -12.1 °C 34591.4 hPa Calm     94 % 0 mm
01:02 -11.6 °C -12.1 °C 34591.4 hPa Calm     95 % 0 mm
01:12 -11.6 °C -12.1 °C 34591.4 hPa Calm     95 % 0 mm
01:17 -11.6 °C -12.1 °C 34591.4 hPa Calm     95 % 0 mm
01:22 -11.6 °C -12.1 °C 34601.5 hPa Calm     95 % 0 mm
01:27 -11.7 °C -12.1 °C 34601.5 hPa Calm     95 % 0 mm
01:32 -11.6 °C -12.1 °C 34601.5 hPa Calm     95 % 0 mm
01:37 -11.7 °C -12.1 °C 34601.5 hPa Calm     95 % 0 mm
01:42 -11.7 °C -12.2 °C 34601.5 hPa Calm     95 % 0 mm
01:47 -11.7 °C -12.2 °C 34601.5 hPa Calm     95 % 0 mm
01:52 -11.8 °C -12.2 °C 34601.5 hPa Calm     95 % 0 mm
01:57 -11.8 °C -12.2 °C 34601.5 hPa Calm     95 % 0 mm
02:02 -11.8 °C -12.1 °C 34591.4 hPa Calm     96 % 0 mm
02:12 -11.8 °C -12.1 °C 34591.4 hPa Calm     96 % 0 mm
02:17 -11.8 °C -12.1 °C 34591.4 hPa Calm     96 % 0 mm
02:22 -11.8 °C -12.1 °C 34591.4 hPa Calm     96 % 0 mm
02:32 -11.8 °C -12.2 °C 34591.4 hPa Calm     96 % 0 mm
02:37 -11.8 °C -12.2 °C 34601.5 hPa Calm     96 % 0 mm
02:42 -11.8 °C -12.2 °C 34601.5 hPa Calm     96 % 0 mm
02:52 -11.8 °C -12.2 °C 34591.4 hPa Calm     96 % 0 mm
02:57 -11.8 °C -12.2 °C 34591.4 hPa Calm     96 % 0 mm
03:02 -11.8 °C -12.2 °C 34591.4 hPa Calm     96 % 0 mm
03:12 -11.8 °C -12.2 °C 34591.4 hPa Calm     96 % 0 mm
03:17 -11.8 °C -12.2 °C 34601.5 hPa Calm     96 % 0 mm
03:22 -11.9 °C -12.2 °C 34601.5 hPa Calm     96 % 0 mm
03:27 -11.9 °C -12.3 °C 34601.5 hPa Calm     96 % 0 mm
03:32 -12 °C -12.3 °C 34591.4 hPa Calm     96 % 0 mm
03:37 -12.1 °C -12.4 °C 34601.5 hPa Calm     96 % 0 mm
03:47 -12.1 °C -12.4 °C 34591.4 hPa Calm     96 % 0 mm
03:52 -12.1 °C -12.4 °C 34591.4 hPa Calm     96 % 0 mm
03:57 -12 °C -12.3 °C 34591.4 hPa Calm     97 % 0 mm
04:02 -11.9 °C -12.2 °C 34591.4 hPa Calm     97 % 0 mm
04:07 -11.9 °C -12.3 °C 34591.4 hPa Calm     96 % 0 mm
04:12 -12 °C -12.3 °C 34591.4 hPa Calm     96 % 0 mm
04:17 -12.1 °C -12.4 °C 34591.4 hPa Calm     96 % 0 mm
04:27 -12 °C -12.3 °C 34591.4 hPa Calm     97 % 0 mm
04:32 -12 °C -12.3 °C 34591.4 hPa Calm     96 % 0 mm
04:37 -12.1 °C -12.4 °C 34591.4 hPa Calm     96 % 0 mm
04:47 -12.1 °C -12.4 °C 34591.4 hPa Calm     96 % 0 mm
04:52 -12.1 °C -12.4 °C 34591.4 hPa Calm     96 % 0 mm
05:02 -12.3 °C -12.6 °C 34591.4 hPa Calm     96 % 0 mm
05:12 -12.3 °C -12.7 °C 34591.4 hPa Calm     96 % 0 mm
05:22 -12.3 °C -12.7 °C 34601.5 hPa Calm     96 % 0 mm
05:32 -12.3 °C -12.7 °C 34601.5 hPa Calm     96 % 0 mm
05:42 -12.4 °C -12.7 °C 34601.5 hPa Calm     97 % 0 mm
05:47 -12.3 °C -12.6 °C 34591.4 hPa Calm     97 % 0 mm
05:57 -12.3 °C -12.6 °C 34591.4 hPa Calm     97 % 0 mm
06:02 -12.4 °C -12.7 °C 34591.4 hPa Calm     97 % 0 mm
06:12 -12.3 °C -12.6 °C 34591.4 hPa Calm     97 % 0 mm
06:17 -12.3 °C -12.6 °C 34591.4 hPa Calm     97 % 0 mm
06:22 -12.2 °C -12.4 °C 34601.5 hPa Calm     97 % 0 mm
06:32 -12.1 °C -12.3 °C 34601.5 hPa Calm     97 % 0 mm
06:37 -12 °C -12.3 °C 34601.5 hPa Calm     97 % 0 mm
06:42 -11.8 °C -12.1 °C 34601.5 hPa Calm     97 % 0 mm
06:47 -11.7 °C -12 °C 34601.5 hPa Calm     97 % 0 mm
06:52 -11.6 °C -11.9 °C 34601.5 hPa Calm     97 % 0 mm
06:57 -11.6 °C -11.9 °C 34601.5 hPa Calm     97 % 0 mm
07:02 -11.6 °C -11.8 °C 34601.5 hPa Calm     97 % 0 mm
07:07 -11.6 °C -11.8 °C 34611.7 hPa Calm     97 % 0 mm
07:12 -11.5 °C -11.8 °C 34611.7 hPa Calm     97 % 0 mm
07:22 -11.3 °C -11.6 °C 34601.5 hPa Calm     97 % 0 mm
07:32 -11.2 °C -11.5 °C 34601.5 hPa Calm     97 % 0 mm
07:42 -10.9 °C -11.2 °C 34601.5 hPa Calm     97 % 0 mm
07:52 -10.6 °C -10.9 °C 34611.7 hPa Calm     97 % 0 mm
07:57 -10.5 °C -10.8 °C 34611.7 hPa Calm     97 % 0 mm
08:02 -10.3 °C -10.6 °C 34611.7 hPa Calm     97 % 0 mm
08:12 -10.1 °C -10.4 °C 34611.7 hPa Calm     96 % 0 mm
08:17 -9.9 °C -10.3 °C 34611.7 hPa Calm     95 % 0 mm
08:22 -9.8 °C -10.4 °C 34611.7 hPa Calm     94 % 0 mm
08:32 -9.6 °C -10.3 °C 34611.7 hPa Calm     92 % 0 mm
08:42 -9.4 °C -10.4 °C 34611.7 hPa Calm     89 % 0 mm
08:47 -9.2 °C -10.2 °C 34611.7 hPa Calm     89 % 0 mm
08:52 -9 °C -10 °C 34611.7 hPa Calm     89 % 0 mm
08:57 -8.8 °C -10.1 °C 34611.7 hPa Calm     86 % 0 mm
09:02 -8.7 °C -10.2 °C 34611.7 hPa Calm     84 % 0 mm
09:12 -8.4 °C -10 °C 34611.7 hPa Calm     83 % 0 mm
09:17 -8.2 °C -9.9 °C 34611.7 hPa WSW 2.6 km/h 5.1 km/h 82 % 0 mm
09:22 -8.1 °C -10.1 °C 34611.7 hPa Calm   5.1 km/h 80 % 0 mm
09:32 -7.9 °C -9.9 °C 34611.7 hPa WSW 5.1 km/h 10.3 km/h 80 % 0 mm
09:42 -7.8 °C -9.9 °C 34625.2 hPa WSW 5.1 km/h 10.3 km/h 78 % 0 mm
09:52 -7.6 °C -9.9 °C 34625.2 hPa Calm   12.9 km/h 77 % 0 mm
09:57 -7.4 °C -9.8 °C 34625.2 hPa WSW 5.1 km/h 18.2 km/h 76 % 0 mm
10:02 -7.3 °C -9.6 °C 34611.7 hPa WSW 2.6 km/h 18.2 km/h 77 % 0 mm
10:07 -7.2 °C -9.7 °C 34611.7 hPa WSW 10.3 km/h 18.2 km/h 75 % 0 mm
10:12 -7.1 °C -9.6 °C 34611.7 hPa WSW 10.3 km/h 18.2 km/h 75 % 0 mm
10:17 -7 °C -10 °C 34625.2 hPa WSW 2.6 km/h 18.2 km/h 71 % 0 mm
10:22 -7.1 °C -10.1 °C 34611.7 hPa SW 5.1 km/h 18.2 km/h 71 % 0 mm
10:32 -6.8 °C -10.1 °C 34611.7 hPa WNW 7.7 km/h 12.9 km/h 69 % 0 mm
10:42 -6.9 °C -10.2 °C 34611.7 hPa SW 5.1 km/h 18.2 km/h 69 % 0 mm
10:47 -7.1 °C -10.3 °C 34611.7 hPa SW 2.6 km/h 18.2 km/h 69 % 0 mm
10:52 -7.1 °C -10.3 °C 34611.7 hPa Calm   18.2 km/h 69 % 0 mm
10:57 -6.8 °C -9.9 °C 34611.7 hPa SW 5.1 km/h 18.2 km/h 70 % 0 mm
11:02 -6.5 °C -9.9 °C 34611.7 hPa WSW 5.1 km/h 18.2 km/h 68 % 0 mm
11:07 -6.6 °C -10.4 °C 34611.7 hPa ENE 2.6 km/h 12.9 km/h 65 % 0 mm
11:12 -6.8 °C -10.3 °C 34611.7 hPa Calm   12.9 km/h 67 % 0 mm
11:17 -6.6 °C -10.1 °C 34611.7 hPa WSW 5.1 km/h 12.9 km/h 67 % 0 mm
11:22 -6.3 °C -10 °C 34611.7 hPa SW 12.9 km/h 12.9 km/h 66 % 0 mm
11:27 -6.2 °C -10.4 °C 34611.7 hPa SW 7.7 km/h 20.8 km/h 62 % 0 mm
11:37 -6.2 °C -10.2 °C 34625.2 hPa SW 5.1 km/h 23.3 km/h 63 % 0 mm
11:42 -6.2 °C -10.1 °C 34625.2 hPa WNW 5.1 km/h 23.3 km/h 64 % 0 mm
11:47 -6.2 °C -10.4 °C 34611.7 hPa South 5.1 km/h 23.3 km/h 62 % 0 mm
11:52 -6.2 °C -10.4 °C 34611.7 hPa WSW 7.7 km/h 23.3 km/h 62 % 0 mm
11:57 -6.2 °C -10.2 °C 34611.7 hPa Calm   15.6 km/h 64 % 0 mm
12:02 -6.3 °C -10.3 °C 34611.7 hPa WSW 2.6 km/h 15.6 km/h 63 % 0 mm
12:07 -6.2 °C -10.2 °C 34611.7 hPa Calm   15.6 km/h 63 % 0 mm
12:12 -6.1 °C -10.3 °C 34611.7 hPa SSW 7.7 km/h 15.6 km/h 62 % 0 mm
12:22 -5.9 °C -10.2 °C 34611.7 hPa Calm   15.6 km/h 62 % 0 mm
12:27 -5.8 °C -10.2 °C 34601.5 hPa SW 5.1 km/h 15.6 km/h 61 % 0 mm
12:32 -5.8 °C -10.4 °C 34601.5 hPa West 10.3 km/h 15.6 km/h 59 % 0 mm
12:37 -5.9 °C -10.2 °C 34601.5 hPa WSW 2.6 km/h 15.6 km/h 61 % 0 mm
12:42 -5.7 °C -10.2 °C 34601.5 hPa Calm   20.8 km/h 60 % 0 mm
12:47 -5.6 °C -10.1 °C 34601.5 hPa WSW 12.9 km/h 20.8 km/h 60 % 0 mm
12:52 -5.7 °C -9.9 °C 34601.5 hPa SSW 5.1 km/h 20.8 km/h 62 % 0 mm
12:57 -5.6 °C -10 °C 34601.5 hPa West 2.6 km/h 18.2 km/h 61 % 0 mm
13:02 -5.4 °C -9.8 °C 34601.5 hPa SW 7.7 km/h 18.2 km/h 61 % 0 mm
13:12 -5.4 °C -10.1 °C 34601.5 hPa NW 5.1 km/h 15.6 km/h 59 % 0 mm
13:22 -5.4 °C -10.1 °C 34601.5 hPa WSW 2.6 km/h 20.8 km/h 59 % 0 mm
13:32 -4.9 °C -10.1 °C 34591.4 hPa Calm   20.8 km/h 56 % 0 mm
13:37 -4.7 °C -9.4 °C 34591.4 hPa WSW 5.1 km/h 12.9 km/h 59 % 0 mm
13:42 -4.8 °C -9.9 °C 34591.4 hPa Calm   12.9 km/h 56 % 0 mm
13:47 -4.8 °C -9.9 °C 34591.4 hPa Calm   20.8 km/h 56 % 0 mm
13:52 -4.7 °C -9.8 °C 34591.4 hPa WSW 2.6 km/h 20.8 km/h 56 % 0 mm
13:57 -4.9 °C -10.1 °C 34591.4 hPa SW 5.1 km/h 23.3 km/h 56 % 0 mm
14:02 -5.1 °C -9.7 °C 34591.4 hPa Calm   23.3 km/h 59 % 0 mm
14:07 -5 °C -9.8 °C 34591.4 hPa SW 2.6 km/h 23.3 km/h 58 % 0 mm
14:12 -4.8 °C -9.5 °C 34591.4 hPa WSW 10.3 km/h 23.3 km/h 59 % 0 mm
14:17 -4.9 °C -10.2 °C 34591.4 hPa West 2.6 km/h 18.2 km/h 55 % 0 mm
14:22 -4.9 °C -9.6 °C 34591.4 hPa WNW 7.7 km/h 18.2 km/h 59 % 0 mm
14:27 -4.8 °C -9.7 °C 34591.4 hPa Calm   20.8 km/h 58 % 0 mm
14:32 -4.8 °C -9.7 °C 34591.4 hPa West 2.6 km/h 20.8 km/h 58 % 0 mm
14:37 -4.9 °C -9.7 °C 34591.4 hPa SE 2.6 km/h 20.8 km/h 59 % 0 mm
14:42 -5 °C -9.8 °C 34591.4 hPa WSW 5.1 km/h 20.8 km/h 58 % 0 mm
14:47 -5.1 °C -9.7 °C 34591.4 hPa West 5.1 km/h 15.6 km/h 60 % 0 mm
14:52 -5.2 °C -9.4 °C 34591.4 hPa WSW 10.3 km/h 15.6 km/h 62 % 0 mm
14:57 -4.9 °C -9.5 °C 34577.8 hPa WNW 2.6 km/h 15.6 km/h 60 % 0 mm
15:02 -4.8 °C -9.5 °C 34577.8 hPa WSW 5.1 km/h 15.6 km/h 59 % 0 mm
15:07 -4.7 °C -9.5 °C 34577.8 hPa WSW 5.1 km/h 15.6 km/h 58 % 0 mm
15:12 -4.6 °C -9.5 °C 34577.8 hPa Calm   15.6 km/h 58 % 0 mm
15:17 -4.6 °C -8.8 °C 34577.8 hPa WSW 12.9 km/h 18.2 km/h 62 % 0 mm
15:22 -4.6 °C -9.2 °C 34577.8 hPa East 5.1 km/h 18.2 km/h 60 % 0 mm
15:27 -4.8 °C -9.1 °C 34577.8 hPa WSW 5.1 km/h 15.6 km/h 62 % 0 mm
15:32 -4.9 °C -9.3 °C 34577.8 hPa WSW 5.1 km/h 15.6 km/h 61 % 0 mm
15:37 -5.1 °C -9.3 °C 34577.8 hPa Calm   18.2 km/h 62 % 0 mm
15:42 -5.1 °C -9.2 °C 34577.8 hPa SW 2.6 km/h 18.2 km/h 63 % 0 mm
15:47 -5.2 °C -9.3 °C 34577.8 hPa Calm   18.2 km/h 63 % 0 mm
15:52 -5.1 °C -8.8 °C 34577.8 hPa Calm   18.2 km/h 66 % 0 mm
15:57 -4.9 °C -8.8 °C 34577.8 hPa SW 5.1 km/h 10.3 km/h 65 % 0 mm
16:02 -4.7 °C -8.8 °C 34591.4 hPa West 5.1 km/h 10.3 km/h 63 % 0 mm
16:07 -4.9 °C -9 °C 34591.4 hPa SSE 7.7 km/h 15.6 km/h 63 % 0 mm
16:12 -5.2 °C -9.1 °C 34591.4 hPa SSW 5.1 km/h 15.6 km/h 65 % 0 mm
16:17 -5.5 °C -9.1 °C 34591.4 hPa Calm   15.6 km/h 67 % 0 mm
16:27 -5.8 °C -9.2 °C 34591.4 hPa WSW 2.6 km/h 15.6 km/h 68 % 0 mm
16:32 -5.9 °C -9.2 °C 34591.4 hPa SW 2.6 km/h 15.6 km/h 69 % 0 mm
16:37 -6.1 °C -9.2 °C 34591.4 hPa SW 5.1 km/h 12.9 km/h 70 % 0 mm
16:42 -6.3 °C -9.3 °C 34591.4 hPa West 2.6 km/h 12.9 km/h 71 % 0 mm
16:47 -6.3 °C -9.2 °C 34591.4 hPa Calm   10.3 km/h 72 % 0 mm
16:52 -6.3 °C -9.1 °C 34591.4 hPa Calm   10.3 km/h 73 % 0 mm
16:57 -6.2 °C -9 °C 34591.4 hPa East 2.6 km/h 10.3 km/h 73 % 0 mm
17:02 -6.3 °C -9.2 °C 34591.4 hPa West 7.7 km/h 10.3 km/h 72 % 0 mm
17:07 -6.4 °C -9.2 °C 34591.4 hPa WSW 2.6 km/h 15.6 km/h 73 % 0 mm
17:12 -6.3 °C -9 °C 34577.8 hPa Calm   15.6 km/h 74 % 0 mm
17:17 -6.3 °C -8.9 °C 34577.8 hPa WSW 2.6 km/h 18.2 km/h 74 % 0 mm
17:22 -6.2 °C -8.9 °C 34577.8 hPa Calm   18.2 km/h 74 % 0 mm
17:27 -5.9 °C -8.6 °C 34577.8 hPa SW 2.6 km/h 18.2 km/h 74 % 0 mm
17:32 -5.5 °C -8.7 °C 34577.8 hPa WSW 2.6 km/h 18.2 km/h 70 % 0 mm
17:37 -5.4 °C -8.8 °C 34577.8 hPa East 2.6 km/h 10.3 km/h 69 % 0 mm
17:42 -5.5 °C -9.2 °C 34577.8 hPa WSW 5.1 km/h 10.3 km/h 66 % 0 mm
17:47 -5.4 °C -8.8 °C 34577.8 hPa West 2.6 km/h 12.9 km/h 68 % 0 mm
17:52 -5.3 °C -9 °C 34567.7 hPa WSW 2.6 km/h 12.9 km/h 66 % 0 mm
17:57 -5.1 °C -8.6 °C 34567.7 hPa Calm   15.6 km/h 68 % 0 mm
18:12 -5.1 °C -8.8 °C 34567.7 hPa Calm   15.6 km/h 66 % 0 mm
18:17 -5.1 °C -8.7 °C 34567.7 hPa Calm   15.6 km/h 67 % 0 mm
18:22 -5.3 °C -8.8 °C 34567.7 hPa Calm   15.6 km/h 67 % 0 mm
18:32 -5.1 °C -8.9 °C 34567.7 hPa WNW 2.6 km/h 12.9 km/h 65 % 0 mm
18:37 -5.1 °C -8.9 °C 34567.7 hPa West 2.6 km/h 12.9 km/h 65 % 0 mm
18:42 -5.3 °C -8.9 °C 34567.7 hPa SSW 5.1 km/h 10.3 km/h 67 % 0 mm
18:47 -5.6 °C -9.2 °C 34567.7 hPa WSW 2.6 km/h 15.6 km/h 66 % 0 mm
18:52 -5.7 °C -9.1 °C 34567.7 hPa WSW 2.6 km/h 15.6 km/h 68 % 0 mm
18:57 -5.8 °C -9.1 °C 34567.7 hPa SW 7.7 km/h 15.6 km/h 69 % 0 mm
19:07 -6 °C -9.1 °C 34567.7 hPa Calm   10.3 km/h 71 % 0 mm
19:12 -6.1 °C -9.1 °C 34567.7 hPa Calm   10.3 km/h 71 % 0 mm
19:17 -6.1 °C -9.2 °C 34554.1 hPa SW 2.6 km/h 5.1 km/h 71 % 0 mm
19:22 -6.2 °C -9.1 °C 34567.7 hPa Calm   5.1 km/h 72 % 0 mm
19:27 -6.2 °C -9 °C 34554.1 hPa Calm   5.1 km/h 73 % 0 mm
19:32 -6.3 °C -9.1 °C 34554.1 hPa West 2.6 km/h 5.1 km/h 73 % 0 mm
19:37 -6.3 °C -9.1 °C 34554.1 hPa West 2.6 km/h 10.3 km/h 73 % 0 mm
19:42 -6.4 °C -9.1 °C 34554.1 hPa Calm   10.3 km/h 74 % 0 mm
19:47 -6.5 °C -9.1 °C 34554.1 hPa Calm   5.1 km/h 75 % 0 mm
19:52 -6.6 °C -9.1 °C 34554.1 hPa Calm   5.1 km/h 75 % 0 mm
19:57 -6.6 °C -9.1 °C 34554.1 hPa Calm   5.1 km/h 75 % 0 mm
20:02 -6.7 °C -9.2 °C 34554.1 hPa WSW 7.7 km/h 7.7 km/h 75 % 0 mm
20:07 -6.8 °C -9.2 °C 34554.1 hPa Calm   10.3 km/h 76 % 0 mm
20:12 -6.8 °C -9 °C 34554.1 hPa Calm   10.3 km/h 78 % 0 mm
20:17 -6.9 °C -8.9 °C 34554.1 hPa Calm   10.3 km/h 79 % 0 mm
20:22 -7 °C -8.8 °C 34567.7 hPa Calm   10.3 km/h 81 % 0 mm
20:32 -7.3 °C -8.8 °C 34567.7 hPa Calm   7.7 km/h 84 % 0 mm
20:37 -7.3 °C -8.8 °C 34567.7 hPa Calm   5.1 km/h 85 % 0 mm
20:42 -7.4 °C -8.7 °C 34567.7 hPa Calm   5.1 km/h 86 % 0 mm
20:47 -7.4 °C -8.7 °C 34567.7 hPa Calm   5.1 km/h 87 % 0 mm
20:52 -7.6 °C -8.7 °C 34567.7 hPa Calm   5.1 km/h 88 % 0 mm
20:57 -7.7 °C -8.7 °C 34567.7 hPa Calm   2.6 km/h 89 % 0 mm
21:02 -7.7 °C -8.7 °C 34567.7 hPa Calm   2.6 km/h 90 % 0 mm
21:12 -7.7 °C -8.7 °C 34567.7 hPa Calm   2.6 km/h 90 % 0 mm
21:17 -7.7 °C -8.6 °C 34567.7 hPa Calm   2.6 km/h 91 % 0 mm
21:22 -7.8 °C -8.8 °C 34567.7 hPa Calm   2.6 km/h 90 % 0 mm
21:27 -7.9 °C -8.8 °C 34567.7 hPa Calm   5.1 km/h 90 % 0 mm
21:32 -7.9 °C -8.7 °C 34567.7 hPa Calm   5.1 km/h 91 % 0 mm
21:42 -7.9 °C -8.8 °C 34567.7 hPa Calm   5.1 km/h 91 % 0 mm
21:47 -7.9 °C -8.8 °C 34567.7 hPa Calm   2.6 km/h 91 % 0 mm
21:52 -7.9 °C -8.8 °C 34567.7 hPa Calm   2.6 km/h 91 % 0 mm
21:57 -8 °C -8.8 °C 34567.7 hPa Calm   2.6 km/h 91 % 0 mm
22:07 -8.1 °C -8.9 °C 34567.7 hPa Calm   2.6 km/h 91 % 0 mm
22:12 -8.1 °C -8.9 °C 34577.8 hPa Calm   2.6 km/h 91 % 0 mm
22:17 -8.2 °C -9 °C 34577.8 hPa Calm   2.6 km/h 91 % 0 mm
22:22 -8.2 °C -9 °C 34577.8 hPa Calm   2.6 km/h 91 % 0 mm
22:27 -8.2 °C -9 °C 34577.8 hPa Calm   2.6 km/h 91 % 0 mm
22:32 -8.2 °C -9 °C 34577.8 hPa Calm   2.6 km/h 91 % 0 mm
22:37 -8.2 °C -9 °C 34577.8 hPa Calm   2.6 km/h 91 % 0 mm
22:42 -8.1 °C -8.9 °C 34577.8 hPa Calm   2.6 km/h 91 % 0 mm
22:47 -8.2 °C -9.1 °C 34577.8 hPa Calm   2.6 km/h 90 % 0 mm
22:52 -8.2 °C -9.1 °C 34577.8 hPa Calm   2.6 km/h 90 % 0 mm
22:57 -8.2 °C -9.1 °C 34577.8 hPa Calm   7.7 km/h 90 % 0 mm
23:02 -8.1 °C -8.9 °C 34577.8 hPa Calm   7.7 km/h 91 % 0 mm
23:07 -8.2 °C -9 °C 34577.8 hPa Calm   7.7 km/h 91 % 0 mm
23:12 -8.2 °C -9 °C 34577.8 hPa Calm   7.7 km/h 91 % 0 mm
23:17 -8.2 °C -9 °C 34577.8 hPa Calm   2.6 km/h 91 % 0 mm
23:22 -8.2 °C -9 °C 34577.8 hPa Calm   2.6 km/h 91 % 0 mm
23:27 -8.2 °C -9 °C 34577.8 hPa Calm   2.6 km/h 91 % 0 mm
23:32 -8.2 °C -9 °C 34577.8 hPa Calm   2.6 km/h 91 % 0 mm
23:37 -8.2 °C -9 °C 34577.8 hPa WSW 2.6 km/h 7.7 km/h 91 % 0 mm
23:42 -8.2 °C -8.9 °C 34577.8 hPa WSW 2.6 km/h 7.7 km/h 92 % 0 mm
23:47 -8.2 °C -8.9 °C 34577.8 hPa Calm   7.7 km/h 92 % 0 mm
23:52 -8.2 °C -8.9 °C 34577.8 hPa West 2.6 km/h 7.7 km/h 92 % 0 mm
23:57 -8.2 °C -8.8 °C 34577.8 hPa Calm   5.1 km/h 93 % 0 mm
Meteo18
Compliments of Weather Underground - 4 mb

Script developed by  Jim McMurry - jmcmurry@mwt.net Adapted for the template by  Wim van der Kuil - Leuven-Template.eu

You find our weather info also at:

European Weather Network

Weather Underground

Equipment we use:

Weather-station
Davis Vue

Weather-program
Meteobridge

Weather-server
Raspberry PI 2 B+

Provider
1 and 1

Davis Vue

Meteobridge

Raspberry PI 2 B+

1 and 1